sensor_id;sensor_type;location;lat;lon;timestamp;pressure;altitude;pressure_sealevel;temperature;humidity
60489;BME280;46331;49.252;8.904;2023-06-10T00:00:08;99355.53;;;19.37;54.66
60489;BME280;46331;49.252;8.904;2023-06-10T00:00:54;99357.44;;;19.37;54.93
60489;BME280;46331;49.252;8.904;2023-06-10T00:01:36;99361.22;;;19.36;54.88
60489;BME280;46331;49.252;8.904;2023-06-10T00:02:16;99359.13;;;19.33;55.11
60489;BME280;46331;49.252;8.904;2023-06-10T00:02:57;99348.38;;;19.33;55.20
60489;BME280;46331;49.252;8.904;2023-06-10T00:03:38;99354.06;;;19.31;55.10
60489;BME280;46331;49.252;8.904;2023-06-10T00:04:27;99353.91;;;19.27;55.12
60489;BME280;46331;49.252;8.904;2023-06-10T00:05:11;99354.03;;;19.22;55.53
60489;BME280;46331;49.252;8.904;2023-06-10T00:05:51;99351.63;;;19.21;55.63
60489;BME280;46331;49.252;8.904;2023-06-10T00:06:32;99351.13;;;19.19;55.76
60489;BME280;46331;49.252;8.904;2023-06-10T00:07:16;99355.22;;;19.16;55.75
60489;BME280;46331;49.252;8.904;2023-06-10T00:07:57;99356.16;;;19.11;55.99
60489;BME280;46331;49.252;8.904;2023-06-10T00:08:37;99352.94;;;19.09;55.99
60489;BME280;46331;49.252;8.904;2023-06-10T00:09:20;99353.25;;;19.08;56.06
60489;BME280;46331;49.252;8.904;2023-06-10T00:10:06;99349.28;;;19.05;56.04
60489;BME280;46331;49.252;8.904;2023-06-10T00:10:47;99352.88;;;19.01;56.53
60489;BME280;46331;49.252;8.904;2023-06-10T00:11:27;99354.56;;;18.97;56.49
60489;BME280;46331;49.252;8.904;2023-06-10T00:12:09;99353.28;;;18.94;56.65
60489;BME280;46331;49.252;8.904;2023-06-10T00:12:52;99357.69;;;18.90;56.82
60489;BME280;46331;49.252;8.904;2023-06-10T00:13:33;99355.91;;;18.85;56.85
60489;BME280;46331;49.252;8.904;2023-06-10T00:14:13;99351.59;;;18.84;57.31
60489;BME280;46331;49.252;8.904;2023-06-10T00:14:54;99359.94;;;18.83;56.96
60489;BME280;46331;49.252;8.904;2023-06-10T00:15:34;99359.47;;;18.81;57.14
60489;BME280;46331;49.252;8.904;2023-06-10T00:16:15;99353.09;;;18.76;57.27
60489;BME280;46331;49.252;8.904;2023-06-10T00:16:58;99355.28;;;18.74;57.50
60489;BME280;46331;49.252;8.904;2023-06-10T00:17:39;99348.91;;;18.70;57.51
60489;BME280;46331;49.252;8.904;2023-06-10T00:18:19;99350.31;;;18.68;57.64
60489;BME280;46331;49.252;8.904;2023-06-10T00:19:03;99349.50;;;18.67;57.59
60489;BME280;46331;49.252;8.904;2023-06-10T00:19:44;99353.00;;;18.68;57.67
60489;BME280;46331;49.252;8.904;2023-06-10T00:20:27;99350.00;;;18.69;57.62
60489;BME280;46331;49.252;8.904;2023-06-10T00:21:07;99351.59;;;18.70;57.74
60489;BME280;46331;49.252;8.904;2023-06-10T00:21:48;99354.59;;;18.69;57.71
60489;BME280;46331;49.252;8.904;2023-06-10T00:22:28;99351.13;;;18.68;57.58
60489;BME280;46331;49.252;8.904;2023-06-10T00:23:10;99359.25;;;18.63;57.95
60489;BME280;46331;49.252;8.904;2023-06-10T00:23:50;99354.19;;;18.62;57.89
60489;BME280;46331;49.252;8.904;2023-06-10T00:24:31;99342.97;;;18.59;58.10
60489;BME280;46331;49.252;8.904;2023-06-10T00:25:11;99355.09;;;18.57;58.24
60489;BME280;46331;49.252;8.904;2023-06-10T00:25:51;99350.81;;;18.56;57.88
60489;BME280;46331;49.252;8.904;2023-06-10T00:26:35;99359.66;;;18.56;58.30
60489;BME280;46331;49.252;8.904;2023-06-10T00:27:16;99358.88;;;18.56;58.23
60489;BME280;46331;49.252;8.904;2023-06-10T00:27:56;99350.00;;;18.55;58.31
60489;BME280;46331;49.252;8.904;2023-06-10T00:28:37;99356.78;;;18.53;58.36
60489;BME280;46331;49.252;8.904;2023-06-10T00:29:17;99357.88;;;18.52;58.67
60489;BME280;46331;49.252;8.904;2023-06-10T00:29:58;99361.16;;;18.49;58.59
60489;BME280;46331;49.252;8.904;2023-06-10T00:30:38;99358.28;;;18.45;58.71
60489;BME280;46331;49.252;8.904;2023-06-10T00:31:19;99357.78;;;18.43;58.71
60489;BME280;46331;49.252;8.904;2023-06-10T00:31:59;99359.44;;;18.39;58.85
60489;BME280;46331;49.252;8.904;2023-06-10T00:32:40;99356.28;;;18.37;59.04
60489;BME280;46331;49.252;8.904;2023-06-10T00:33:20;99354.97;;;18.34;58.80
60489;BME280;46331;49.252;8.904;2023-06-10T00:34:01;99355.28;;;18.33;59.02
60489;BME280;46331;49.252;8.904;2023-06-10T00:34:42;99355.56;;;18.31;59.12
60489;BME280;46331;49.252;8.904;2023-06-10T00:35:22;99357.16;;;18.32;58.84
60489;BME280;46331;49.252;8.904;2023-06-10T00:36:03;99359.56;;;18.34;58.80
60489;BME280;46331;49.252;8.904;2023-06-10T00:36:44;99361.66;;;18.37;58.98
60489;BME280;46331;49.252;8.904;2023-06-10T00:37:24;99356.88;;;18.34;59.09
60489;BME280;46331;49.252;8.904;2023-06-10T00:38:05;99355.78;;;18.35;59.19
60489;BME280;46331;49.252;8.904;2023-06-10T00:38:45;99361.25;;;18.30;58.98
60489;BME280;46331;49.252;8.904;2023-06-10T00:39:26;99361.25;;;18.30;59.35
60489;BME280;46331;49.252;8.904;2023-06-10T00:40:07;99361.84;;;18.27;59.26
60489;BME280;46331;49.252;8.904;2023-06-10T00:40:49;99358.75;;;18.19;59.43
60489;BME280;46331;49.252;8.904;2023-06-10T00:41:30;99354.47;;;18.18;59.64
60489;BME280;46331;49.252;8.904;2023-06-10T00:42:11;99351.31;;;18.16;59.68
60489;BME280;46331;49.252;8.904;2023-06-10T00:42:52;99350.78;;;18.14;59.85
60489;BME280;46331;49.252;8.904;2023-06-10T00:43:34;99354.06;;;18.11;59.80
60489;BME280;46331;49.252;8.904;2023-06-10T00:44:15;99354.88;;;18.12;59.98
60489;BME280;46331;49.252;8.904;2023-06-10T00:44:56;99355.47;;;18.09;59.85
60489;BME280;46331;49.252;8.904;2023-06-10T00:45:37;99358.44;;;18.07;60.06
60489;BME280;46331;49.252;8.904;2023-06-10T00:46:17;99356.34;;;18.04;60.18
60489;BME280;46331;49.252;8.904;2023-06-10T00:46:58;99356.66;;;18.02;60.00
60489;BME280;46331;49.252;8.904;2023-06-10T00:47:39;99360.41;;;18.01;60.19
60489;BME280;46331;49.252;8.904;2023-06-10T00:48:20;99352.66;;;18.00;60.25
60489;BME280;46331;49.252;8.904;2023-06-10T00:49:00;99360.22;;;17.98;60.33
60489;BME280;46331;49.252;8.904;2023-06-10T00:49:41;99362.09;;;17.97;60.30
60489;BME280;46331;49.252;8.904;2023-06-10T00:50:22;99354.03;;;17.97;60.49
60489;BME280;46331;49.252;8.904;2023-06-10T00:51:04;99360.50;;;17.96;60.56
60489;BME280;46331;49.252;8.904;2023-06-10T00:51:45;99354.94;;;17.93;60.47
60489;BME280;46331;49.252;8.904;2023-06-10T00:52:28;99359.22;;;17.94;60.87
60489;BME280;46331;49.252;8.904;2023-06-10T00:53:09;99352.25;;;17.93;60.62
60489;BME280;46331;49.252;8.904;2023-06-10T00:53:51;99355.44;;;17.95;60.63
60489;BME280;46331;49.252;8.904;2023-06-10T00:54:34;99355.44;;;17.95;60.64
60489;BME280;46331;49.252;8.904;2023-06-10T00:55:16;99364.28;;;17.95;60.54
60489;BME280;46331;49.252;8.904;2023-06-10T00:55:57;99358.91;;;17.95;60.83
60489;BME280;46331;49.252;8.904;2023-06-10T00:56:37;99352.16;;;17.98;60.61
60489;BME280;46331;49.252;8.904;2023-06-10T00:57:18;99363.41;;;18.00;60.67
60489;BME280;46331;49.252;8.904;2023-06-10T00:57:59;99358.53;;;18.02;60.43
60489;BME280;46331;49.252;8.904;2023-06-10T00:58:40;99353.44;;;18.00;60.27
60489;BME280;46331;49.252;8.904;2023-06-10T00:59:20;99356.44;;;17.99;60.32
60489;BME280;46331;49.252;8.904;2023-06-10T01:00:01;99362.09;;;17.97;60.46
60489;BME280;46331;49.252;8.904;2023-06-10T01:00:41;99354.34;;;17.96;60.47
60489;BME280;46331;49.252;8.904;2023-06-10T01:01:22;99347.09;;;17.96;60.52
60489;BME280;46331;49.252;8.904;2023-06-10T01:02:03;99352.25;;;17.93;60.63
60489;BME280;46331;49.252;8.904;2023-06-10T01:02:44;99356.03;;;17.92;60.81
60489;BME280;46331;49.252;8.904;2023-06-10T01:03:24;99358.19;;;17.90;60.70
60489;BME280;46331;49.252;8.904;2023-06-10T01:04:05;99353.94;;;17.89;60.95
60489;BME280;46331;49.252;8.904;2023-06-10T01:04:46;99357.69;;;17.87;60.88
60489;BME280;46331;49.252;8.904;2023-06-10T01:05:28;99354.22;;;17.87;61.10
60489;BME280;46331;49.252;8.904;2023-06-10T01:07:26;99365.47;;;17.89;60.73
60489;BME280;46331;49.252;8.904;2023-06-10T01:11:25;99364.94;;;17.87;61.01
60489;BME280;46331;49.252;8.904;2023-06-10T01:12:13;99362.00;;;17.89;61.02
60489;BME280;46331;49.252;8.904;2023-06-10T01:13:06;99354.78;;;17.84;61.09
60489;BME280;46331;49.252;8.904;2023-06-10T01:13:50;99365.00;;;17.82;61.21
60489;BME280;46331;49.252;8.904;2023-06-10T01:14:31;99367.97;;;17.80;61.54
60489;BME280;46331;49.252;8.904;2023-06-10T01:15:15;99367.97;;;17.80;61.68
60489;BME280;46331;49.252;8.904;2023-06-10T01:15:56;99364.00;;;17.78;61.42
60489;BME280;46331;49.252;8.904;2023-06-10T01:16:37;99359.25;;;17.75;61.96
60489;BME280;46331;49.252;8.904;2023-06-10T01:17:17;99369.97;;;17.75;62.36
60489;BME280;46331;49.252;8.904;2023-06-10T01:18:40;99362.56;;;17.66;62.50
60489;BME280;46331;49.252;8.904;2023-06-10T01:19:20;99368.81;;;17.62;62.73
60489;BME280;46331;49.252;8.904;2023-06-10T01:20:04;99373.19;;;17.58;63.23
60489;BME280;46331;49.252;8.904;2023-06-10T01:20:46;99373.19;;;17.58;63.09
60489;BME280;46331;49.252;8.904;2023-06-10T01:21:26;99360.94;;;17.51;63.42
60489;BME280;46331;49.252;8.904;2023-06-10T01:22:07;99369.00;;;17.51;63.30
60489;BME280;46331;49.252;8.904;2023-06-10T01:22:47;99365.00;;;17.49;63.42
60489;BME280;46331;49.252;8.904;2023-06-10T01:23:28;99367.47;;;17.45;63.82
60489;BME280;46331;49.252;8.904;2023-06-10T01:24:09;99365.44;;;17.37;64.02
60489;BME280;46331;49.252;8.904;2023-06-10T01:24:52;99365.91;;;17.25;64.71
60489;BME280;46331;49.252;8.904;2023-06-10T01:25:36;99361.41;;;17.21;64.99
60489;BME280;46331;49.252;8.904;2023-06-10T01:26:20;99363.94;;;17.12;65.65
60489;BME280;46331;49.252;8.904;2023-06-10T01:27:05;99366.81;;;17.15;65.33
60489;BME280;46331;49.252;8.904;2023-06-10T01:27:51;99367.09;;;17.14;65.63
60489;BME280;46331;49.252;8.904;2023-06-10T01:28:52;99363.94;;;17.12;65.16
60489;BME280;46331;49.252;8.904;2023-06-10T01:29:39;99368.84;;;17.05;65.55
60489;BME280;46331;49.252;8.904;2023-06-10T01:30:27;99372.34;;;17.05;66.27
60489;BME280;46331;49.252;8.904;2023-06-10T01:32:32;99375.22;;;17.09;66.23
60489;BME280;46331;49.252;8.904;2023-06-10T01:33:06;99375.22;;;17.09;66.15
60489;BME280;46331;49.252;8.904;2023-06-10T01:33:51;99369.66;;;17.05;66.22
60489;BME280;46331;49.252;8.904;2023-06-10T01:34:32;99373.41;;;17.04;66.22
60489;BME280;46331;49.252;8.904;2023-06-10T01:35:13;99372.63;;;17.04;66.06
60489;BME280;46331;49.252;8.904;2023-06-10T01:35:59;99371.09;;;16.97;66.74
60489;BME280;46331;49.252;8.904;2023-06-10T01:36:41;99366.44;;;17.03;66.52
60489;BME280;46331;49.252;8.904;2023-06-10T01:37:26;99375.00;;;17.05;66.70
60489;BME280;46331;49.252;8.904;2023-06-10T01:38:07;99375.00;;;17.05;66.59
60489;BME280;46331;49.252;8.904;2023-06-10T01:38:49;99375.59;;;17.02;66.81
60489;BME280;46331;49.252;8.904;2023-06-10T01:39:31;99379.34;;;17.01;66.68
60489;BME280;46331;49.252;8.904;2023-06-10T01:40:13;99376.38;;;17.03;66.97
60489;BME280;46331;49.252;8.904;2023-06-10T01:40:55;99368.63;;;17.01;66.99
60489;BME280;46331;49.252;8.904;2023-06-10T01:41:36;99376.94;;;17.00;67.49
60489;BME280;46331;49.252;8.904;2023-06-10T01:42:18;99378.84;;;16.99;67.15
60489;BME280;46331;49.252;8.904;2023-06-10T01:42:58;99371.38;;;16.96;67.44
60489;BME280;46331;49.252;8.904;2023-06-10T01:43:39;99377.81;;;16.95;67.65
60489;BME280;46331;49.252;8.904;2023-06-10T01:44:22;99373.25;;;16.95;67.65
60489;BME280;46331;49.252;8.904;2023-06-10T01:45:04;99373.81;;;16.92;67.14
60489;BME280;46331;49.252;8.904;2023-06-10T01:45:44;99378.19;;;16.88;67.36
60489;BME280;46331;49.252;8.904;2023-06-10T01:46:25;99375.78;;;16.87;67.59
60489;BME280;46331;49.252;8.904;2023-06-10T01:47:06;99370.16;;;16.83;67.70
60489;BME280;46331;49.252;8.904;2023-06-10T01:47:47;99375.31;;;16.79;68.62
60489;BME280;46331;49.252;8.904;2023-06-10T01:48:27;99374.50;;;16.79;67.99
60489;BME280;46331;49.252;8.904;2023-06-10T01:49:08;99378.06;;;16.74;68.32
60489;BME280;46331;49.252;8.904;2023-06-10T01:49:48;99379.13;;;16.73;68.82
60489;BME280;46331;49.252;8.904;2023-06-10T01:50:28;99372.75;;;16.69;68.56
60489;BME280;46331;49.252;8.904;2023-06-10T01:51:09;99376.00;;;16.66;68.65
60489;BME280;46331;49.252;8.904;2023-06-10T01:51:50;99376.00;;;16.66;68.74
60489;BME280;46331;49.252;8.904;2023-06-10T01:52:31;99379.78;;;16.65;68.67
60489;BME280;46331;49.252;8.904;2023-06-10T01:53:11;99374.13;;;16.67;69.12
60489;BME280;46331;49.252;8.904;2023-06-10T01:53:52;99375.41;;;16.69;68.65
60489;BME280;46331;49.252;8.904;2023-06-10T01:54:34;99378.94;;;16.65;68.65
60489;BME280;46331;49.252;8.904;2023-06-10T01:55:17;99380.63;;;16.60;68.63
60489;BME280;46331;49.252;8.904;2023-06-10T01:55:58;99374.53;;;16.55;68.85
60489;BME280;46331;49.252;8.904;2023-06-10T01:56:38;99377.69;;;16.57;69.14
60489;BME280;46331;49.252;8.904;2023-06-10T01:57:19;99378.56;;;16.52;68.80
60489;BME280;46331;49.252;8.904;2023-06-10T01:57:59;99372.69;;;16.50;69.06
60489;BME280;46331;49.252;8.904;2023-06-10T01:58:40;99375.66;;;16.49;69.26
60489;BME280;46331;49.252;8.904;2023-06-10T01:59:21;99369.00;;;16.46;69.18
60489;BME280;46331;49.252;8.904;2023-06-10T02:00:02;99375.72;;;16.43;69.30
60489;BME280;46331;49.252;8.904;2023-06-10T02:00:43;99377.88;;;16.41;69.45
60489;BME280;46331;49.252;8.904;2023-06-10T02:01:26;99377.09;;;16.41;69.55
60489;BME280;46331;49.252;8.904;2023-06-10T02:02:07;99380.91;;;16.35;70.35
60489;BME280;46331;49.252;8.904;2023-06-10T02:02:47;99382.50;;;16.36;70.21
60489;BME280;46331;49.252;8.904;2023-06-10T02:03:29;99376.63;;;16.34;70.53
60489;BME280;46331;49.252;8.904;2023-06-10T02:04:09;99379.28;;;16.34;70.52
60489;BME280;46331;49.252;8.904;2023-06-10T02:04:50;99380.41;;;16.33;70.82
60489;BME280;46331;49.252;8.904;2023-06-10T02:05:34;99379.56;;;16.32;70.80
60489;BME280;46331;49.252;8.904;2023-06-10T02:06:15;99375.31;;;16.31;70.86
60489;BME280;46331;49.252;8.904;2023-06-10T02:06:55;99381.75;;;16.30;70.64
60489;BME280;46331;49.252;8.904;2023-06-10T02:07:39;99382.78;;;16.34;70.91
60489;BME280;46331;49.252;8.904;2023-06-10T02:08:20;99380.41;;;16.33;70.54
60489;BME280;46331;49.252;8.904;2023-06-10T02:09:01;99382.81;;;16.29;70.83
60489;BME280;46331;49.252;8.904;2023-06-10T02:09:43;99382.03;;;16.29;71.16
60489;BME280;46331;49.252;8.904;2023-06-10T02:10:24;99382.81;;;16.29;71.00
60489;BME280;46331;49.252;8.904;2023-06-10T02:11:05;99376.97;;;16.27;70.87
60489;BME280;46331;49.252;8.904;2023-06-10T02:11:47;99381.53;;;16.26;71.34
60489;BME280;46331;49.252;8.904;2023-06-10T02:12:27;99382.03;;;16.29;71.03
60489;BME280;46331;49.252;8.904;2023-06-10T02:13:08;99386.59;;;16.28;70.87
60489;BME280;46331;49.252;8.904;2023-06-10T02:13:48;99384.19;;;16.26;71.38
60489;BME280;46331;49.252;8.904;2023-06-10T02:14:29;99386.59;;;16.28;71.24
60489;BME280;46331;49.252;8.904;2023-06-10T02:15:10;99383.94;;;16.23;71.48
60489;BME280;46331;49.252;8.904;2023-06-10T02:15:50;99384.50;;;16.20;71.69
60489;BME280;46331;49.252;8.904;2023-06-10T02:16:31;99385.84;;;16.22;71.59
60489;BME280;46331;49.252;8.904;2023-06-10T02:17:11;99391.47;;;16.21;71.21
60489;BME280;46331;49.252;8.904;2023-06-10T02:17:52;99387.19;;;16.20;71.39
60489;BME280;46331;49.252;8.904;2023-06-10T02:18:34;99384.00;;;16.18;71.21
60489;BME280;46331;49.252;8.904;2023-06-10T02:19:15;99392.53;;;16.20;71.66
60489;BME280;46331;49.252;8.904;2023-06-10T02:19:55;99383.44;;;16.21;71.67
60489;BME280;46331;49.252;8.904;2023-06-10T02:20:37;99383.66;;;16.24;71.36
60489;BME280;46331;49.252;8.904;2023-06-10T02:21:18;99376.97;;;16.27;71.27
60489;BME280;46331;49.252;8.904;2023-06-10T02:21:58;99395.13;;;16.30;71.03
60489;BME280;46331;49.252;8.904;2023-06-10T02:22:39;99386.53;;;16.33;71.20
60489;BME280;46331;49.252;8.904;2023-06-10T02:23:22;99385.75;;;16.33;71.08
60489;BME280;46331;49.252;8.904;2023-06-10T02:24:02;99392.09;;;16.37;71.13
60489;BME280;46331;49.252;8.904;2023-06-10T02:24:43;99391.53;;;16.40;71.11
60489;BME280;46331;49.252;8.904;2023-06-10T02:25:23;99384.03;;;16.42;71.03
60489;BME280;46331;49.252;8.904;2023-06-10T02:26:04;99393.38;;;16.44;71.05
60489;BME280;46331;49.252;8.904;2023-06-10T02:26:45;99385.88;;;16.47;70.82
60489;BME280;46331;49.252;8.904;2023-06-10T02:27:26;99380.50;;;16.47;70.51
60489;BME280;46331;49.252;8.904;2023-06-10T02:28:08;99383.97;;;16.47;70.56
60489;BME280;46331;49.252;8.904;2023-06-10T02:28:49;99388.53;;;16.47;70.19
60489;BME280;46331;49.252;8.904;2023-06-10T02:29:29;99387.72;;;16.46;70.17
60489;BME280;46331;49.252;8.904;2023-06-10T02:30:10;99385.88;;;16.47;70.12
60489;BME280;46331;49.252;8.904;2023-06-10T02:30:51;99383.41;;;16.50;70.19
60489;BME280;46331;49.252;8.904;2023-06-10T02:31:32;99377.78;;;16.52;69.71
60489;BME280;46331;49.252;8.904;2023-06-10T02:32:16;99375.59;;;16.54;69.85
60489;BME280;46331;49.252;8.904;2023-06-10T02:32:56;99384.94;;;16.56;69.36
60489;BME280;46331;49.252;8.904;2023-06-10T02:33:39;99388.94;;;16.59;69.53
60489;BME280;46331;49.252;8.904;2023-06-10T02:34:21;99386.75;;;16.61;69.12
60489;BME280;46331;49.252;8.904;2023-06-10T02:35:02;99392.13;;;16.61;68.92
60489;BME280;46331;49.252;8.904;2023-06-10T02:35:44;99387.56;;;16.61;68.77
60489;BME280;46331;49.252;8.904;2023-06-10T02:36:24;99386.75;;;16.61;69.00
60489;BME280;46331;49.252;8.904;2023-06-10T02:37:09;99393.16;;;16.65;69.20
60489;BME280;46331;49.252;8.904;2023-06-10T02:37:50;99392.06;;;16.66;69.21
60489;BME280;46331;49.252;8.904;2023-06-10T02:38:32;99393.38;;;16.69;69.55
60489;BME280;46331;49.252;8.904;2023-06-10T02:39:13;99401.13;;;16.70;68.98
60489;BME280;46331;49.252;8.904;2023-06-10T02:39:54;99392.88;;;16.67;69.87
60489;BME280;46331;49.252;8.904;2023-06-10T02:40:35;99391.78;;;16.68;69.37
60489;BME280;46331;49.252;8.904;2023-06-10T02:41:15;99393.09;;;16.70;69.20
60489;BME280;46331;49.252;8.904;2023-06-10T02:41:56;99395.75;;;16.70;69.23
60489;BME280;46331;49.252;8.904;2023-06-10T02:42:37;99393.38;;;16.69;69.31
60489;BME280;46331;49.252;8.904;2023-06-10T02:43:18;99397.66;;;16.70;69.20
60489;BME280;46331;49.252;8.904;2023-06-10T02:43:59;99389.38;;;16.66;69.24
60489;BME280;46331;49.252;8.904;2023-06-10T02:44:39;99394.22;;;16.64;69.59
60489;BME280;46331;49.252;8.904;2023-06-10T02:45:22;99394.50;;;16.62;69.40
60489;BME280;46331;49.252;8.904;2023-06-10T02:46:03;99399.09;;;16.62;69.44
60489;BME280;46331;49.252;8.904;2023-06-10T02:46:44;99402.84;;;16.61;69.46
60489;BME280;46331;49.252;8.904;2023-06-10T02:47:25;99395.09;;;16.59;69.62
60489;BME280;46331;49.252;8.904;2023-06-10T02:48:06;99395.66;;;16.56;69.48
60489;BME280;46331;49.252;8.904;2023-06-10T02:48:47;99393.75;;;16.57;69.60
60489;BME280;46331;49.252;8.904;2023-06-10T02:49:34;99401.50;;;16.58;69.30
60489;BME280;46331;49.252;8.904;2023-06-10T02:50:15;99402.03;;;16.60;69.63
60489;BME280;46331;49.252;8.904;2023-06-10T02:51:06;99400.66;;;16.63;69.16
60489;BME280;46331;49.252;8.904;2023-06-10T02:51:52;99393.72;;;16.62;68.99
60489;BME280;46331;49.252;8.904;2023-06-10T02:52:34;99396.13;;;16.63;68.88
60489;BME280;46331;49.252;8.904;2023-06-10T02:53:15;99399.59;;;16.64;69.37
60489;BME280;46331;49.252;8.904;2023-06-10T02:53:59;99407.34;;;16.66;69.03
60489;BME280;46331;49.252;8.904;2023-06-10T02:54:40;99391.78;;;16.68;69.15
60489;BME280;46331;49.252;8.904;2023-06-10T02:55:22;99401.91;;;16.71;68.95
60489;BME280;46331;49.252;8.904;2023-06-10T02:56:09;99395.19;;;16.73;68.53
60489;BME280;46331;49.252;8.904;2023-06-10T02:56:51;99395.69;;;16.75;68.53
60489;BME280;46331;49.252;8.904;2023-06-10T02:57:35;99403.16;;;16.78;68.21
60489;BME280;46331;49.252;8.904;2023-06-10T02:58:17;99397.00;;;16.78;67.83
60489;BME280;46331;49.252;8.904;2023-06-10T02:58:58;99394.34;;;16.78;67.68
60489;BME280;46331;49.252;8.904;2023-06-10T02:59:40;99407.72;;;16.78;67.27
60489;BME280;46331;49.252;8.904;2023-06-10T03:00:21;99399.41;;;16.79;67.19
60489;BME280;46331;49.252;8.904;2023-06-10T03:01:03;99400.19;;;16.80;67.04
60489;BME280;46331;49.252;8.904;2023-06-10T03:01:51;99403.69;;;16.80;66.83
60489;BME280;46331;49.252;8.904;2023-06-10T03:02:32;99397.22;;;16.81;66.75
60489;BME280;46331;49.252;8.904;2023-06-10T03:03:12;99394.56;;;16.81;66.75
60489;BME280;46331;49.252;8.904;2023-06-10T03:04:01;99395.88;;;16.84;66.06
60489;BME280;46331;49.252;8.904;2023-06-10T03:04:41;99401.75;;;16.86;66.07
60489;BME280;46331;49.252;8.904;2023-06-10T03:05:28;99394.75;;;16.90;66.10
60489;BME280;46331;49.252;8.904;2023-06-10T03:06:10;99404.88;;;16.93;66.07
60489;BME280;46331;49.252;8.904;2023-06-10T03:06:51;99398.16;;;16.96;66.11
60489;BME280;46331;49.252;8.904;2023-06-10T03:07:37;99397.31;;;17.01;65.63
60489;BME280;46331;49.252;8.904;2023-06-10T03:08:18;99402.38;;;17.02;65.42
60489;BME280;46331;49.252;8.904;2023-06-10T03:09:02;99395.91;;;17.03;65.42
60489;BME280;46331;49.252;8.904;2023-06-10T03:09:47;99398.31;;;17.05;65.13
60489;BME280;46331;49.252;8.904;2023-06-10T03:10:29;99391.31;;;17.09;65.19
60489;BME280;46331;49.252;8.904;2023-06-10T03:11:09;99392.91;;;17.10;64.78
60489;BME280;46331;49.252;8.904;2023-06-10T03:11:51;99401.72;;;17.10;65.03
60489;BME280;46331;49.252;8.904;2023-06-10T03:12:32;99389.94;;;17.11;64.74
60489;BME280;46331;49.252;8.904;2023-06-10T03:13:12;99396.88;;;17.12;64.85
60489;BME280;46331;49.252;8.904;2023-06-10T03:13:56;99406.50;;;17.13;64.50
60489;BME280;46331;49.252;8.904;2023-06-10T03:14:37;99398.47;;;17.13;64.73
60489;BME280;46331;49.252;8.904;2023-06-10T03:15:19;99393.63;;;17.15;64.51
60489;BME280;46331;49.252;8.904;2023-06-10T03:16:03;99401.66;;;17.15;64.50
60489;BME280;46331;49.252;8.904;2023-06-10T03:16:45;99401.94;;;17.14;64.48
60489;BME280;46331;49.252;8.904;2023-06-10T03:17:26;99397.09;;;17.16;64.32
60489;BME280;46331;49.252;8.904;2023-06-10T03:18:07;99405.94;;;17.16;64.17
60489;BME280;46331;49.252;8.904;2023-06-10T03:18:49;99404.03;;;17.17;64.47
60489;BME280;46331;49.252;8.904;2023-06-10T03:19:29;99408.31;;;17.18;64.46
60489;BME280;46331;49.252;8.904;2023-06-10T03:20:11;99412.59;;;17.19;64.09
60489;BME280;46331;49.252;8.904;2023-06-10T03:20:54;99404.28;;;17.21;64.17
60489;BME280;46331;49.252;8.904;2023-06-10T03:21:36;99412.31;;;17.21;63.93
60489;BME280;46331;49.252;8.904;2023-06-10T03:22:20;99410.13;;;17.23;64.15
60489;BME280;46331;49.252;8.904;2023-06-10T03:23:17;99413.59;;;17.23;63.96
60489;BME280;46331;49.252;8.904;2023-06-10T03:23:58;99410.94;;;17.23;64.02
60489;BME280;46331;49.252;8.904;2023-06-10T03:24:39;99414.41;;;17.24;64.14
60489;BME280;46331;49.252;8.904;2023-06-10T03:25:25;99407.47;;;17.23;63.73
60489;BME280;46331;49.252;8.904;2023-06-10T03:26:08;99418.19;;;17.23;63.75
60489;BME280;46331;49.252;8.904;2023-06-10T03:26:52;99410.44;;;17.21;63.78
60489;BME280;46331;49.252;8.904;2023-06-10T03:27:33;99409.63;;;17.21;63.84
60489;BME280;46331;49.252;8.904;2023-06-10T03:28:17;99410.44;;;17.21;63.72
60489;BME280;46331;49.252;8.904;2023-06-10T03:28:57;99416.28;;;17.23;63.65
60489;BME280;46331;49.252;8.904;2023-06-10T03:29:39;99407.16;;;17.24;63.65
60489;BME280;46331;49.252;8.904;2023-06-10T03:30:21;99418.38;;;17.26;63.64
60489;BME280;46331;49.252;8.904;2023-06-10T03:31:02;99408.19;;;17.28;63.23
60489;BME280;46331;49.252;8.904;2023-06-10T03:31:45;99411.66;;;17.29;63.48
60489;BME280;46331;49.252;8.904;2023-06-10T03:32:26;99414.34;;;17.29;63.49
60489;BME280;46331;49.252;8.904;2023-06-10T03:33:06;99410.06;;;17.28;63.70
60489;BME280;46331;49.252;8.904;2023-06-10T03:33:47;99410.34;;;17.26;63.46
60489;BME280;46331;49.252;8.904;2023-06-10T03:34:28;99412.25;;;17.26;63.62
60489;BME280;46331;49.252;8.904;2023-06-10T03:35:10;99409.84;;;17.24;63.34
60489;BME280;46331;49.252;8.904;2023-06-10T03:35:51;99414.41;;;17.24;63.46
60489;BME280;46331;49.252;8.904;2023-06-10T03:36:32;99417.09;;;17.24;63.30
60489;BME280;46331;49.252;8.904;2023-06-10T03:37:13;99416.56;;;17.22;63.38
60489;BME280;46331;49.252;8.904;2023-06-10T03:37:54;99417.16;;;17.19;63.86
60489;BME280;46331;49.252;8.904;2023-06-10T03:38:34;99412.91;;;17.18;63.69
60489;BME280;46331;49.252;8.904;2023-06-10T03:39:16;99417.72;;;17.15;63.83
60489;BME280;46331;49.252;8.904;2023-06-10T03:39:56;99407.00;;;17.15;63.47
60489;BME280;46331;49.252;8.904;2023-06-10T03:40:37;99409.97;;;17.14;63.70
60489;BME280;46331;49.252;8.904;2023-06-10T03:41:18;99411.88;;;17.13;63.85
60489;BME280;46331;49.252;8.904;2023-06-10T03:41:59;99409.19;;;17.13;63.92
60489;BME280;46331;49.252;8.904;2023-06-10T03:42:41;99412.16;;;17.12;63.88
60489;BME280;46331;49.252;8.904;2023-06-10T03:43:22;99413.22;;;17.11;64.28
60489;BME280;46331;49.252;8.904;2023-06-10T03:44:05;99423.16;;;17.10;64.40
60489;BME280;46331;49.252;8.904;2023-06-10T03:44:45;99418.31;;;17.12;64.22
60489;BME280;46331;49.252;8.904;2023-06-10T03:45:26;99419.13;;;17.13;64.33
60489;BME280;46331;49.252;8.904;2023-06-10T03:46:08;99411.88;;;17.13;64.45
60489;BME280;46331;49.252;8.904;2023-06-10T03:46:49;99417.72;;;17.15;64.64
60489;BME280;46331;49.252;8.904;2023-06-10T03:47:34;99416.66;;;17.16;64.38